Observation data for O'Donnell on 03/24/2019      Previous  Date  Next       Current Mesonet Observations  Soil Data  Daily Summary Page  Observations in Plain Language
KOES 240500Z 18004KT 11/M05 A3001 RMK A01 T01141047  RH  032%=      5-min Rain = 0
KOES 240505Z 17004KT 11/M05 A3001 RMK A01 T01141049  RH  032%=      5-min Rain = 0
KOES 240510Z 17004KT 12/M05 A3001 RMK A01 T01151050  RH  031%=      5-min Rain = 0
KOES 240515Z 17004KT 11/M05 A3001 RMK A01 T01141049  RH  032%=      5-min Rain = 0
KOES 240520Z 18005KT 11/M05 A3001 RMK A01 T01141050  RH  031%=      5-min Rain = 0
KOES 240525Z 18004KT 11/M05 A3001 RMK A01 T01141050  RH  032%=      5-min Rain = 0
KOES 240530Z 19005KT 11/M05 A3001 RMK A01 T01111045  RH  033%=      5-min Rain = 0
KOES 240535Z 19005KT 11/M05 A3002 RMK A01 T01071046  RH  034%=      5-min Rain = 0
KOES 240540Z 20005KT 10/M04 A3002 RMK A01 T01041044  RH  035%=      5-min Rain = 0
KOES 240545Z 19005KT 10/M04 A3002 RMK A01 T00991044  RH  036%=      5-min Rain = 0
KOES 240550Z 19005KT 10/M04 A3002 RMK A01 T00961044  RH  037%=      5-min Rain = 0
KOES 240555Z 19005KT 10/M05 A3002 RMK A01 T00961046  RH  036%=      5-min Rain = 0
KOES 240600Z 19005KT 10/M04 A3002 RMK A01 T00971043  RH  037%=      5-min Rain = 0
KOES 240605Z 19006KT 10/M04 A3001 RMK A01 T00971037  RH  039%=      5-min Rain = 0
KOES 240610Z 19006KT 10/M03 A3001 RMK A01 T00971034  RH  040%=      5-min Rain = 0
KOES 240615Z 20006KT 10/M03 A3001 RMK A01 T00981030  RH  041%=      5-min Rain = 0
KOES 240620Z 20006KT 09/M03 A3001 RMK A01 T00931028  RH  043%=      5-min Rain = 0
KOES 240625Z 18006KT 09/M03 A3001 RMK A01 T00891034  RH  042%=      5-min Rain = 0
KOES 240630Z 21006KT 09/M04 A3001 RMK A01 T00911035  RH  041%=      5-min Rain = 0
KOES 240635Z 20006KT 09/M04 A3001 RMK A01 T00861035  RH  042%=      5-min Rain = 0
KOES 240640Z 19006KT 09/M03 A3001 RMK A01 T00851033  RH  043%=      5-min Rain = 0
KOES 240645Z 20006KT 09/M03 A30 RMK A01 T00881033  RH  042%=      5-min Rain = 0
KOES 240650Z 19005KT 09/M04 A30 RMK A01 T00901038  RH  040%=      5-min Rain = 0
KOES 240655Z 18005KT 09/M04 A30 RMK A01 T00921041  RH  039%=      5-min Rain = 0
KOES 240700Z 18005KT 09/M04 A30 RMK A01 T00931041  RH  039%=      5-min Rain = 0
KOES 240705Z 19005KT 09/M04 A30 RMK A01 T00931042  RH  039%=      5-min Rain = 0
KOES 240710Z 20005KT 09/M04 A30 RMK A01 T00941043  RH  038%=      5-min Rain = 0
KOES 240715Z 19005KT 09/M03 A30 RMK A01 T00891033  RH  042%=      5-min Rain = 0
KOES 240720Z 20005KT 08/M03 A30 RMK A01 T00831027  RH  046%=      5-min Rain = 0
KOES 240725Z 20006KT 08/M02 A30 RMK A01 T00771022  RH  050%=      5-min Rain = 0
KOES 240730Z 19005KT 07/M02 A30 RMK A01 T00721018  RH  053%=      5-min Rain = 0
KOES 240735Z 20006KT 07/M02 A30 RMK A01 T00691015  RH  056%=      5-min Rain = 0
KOES 240740Z 21006KT 07/M02 A30 RMK A01 T00681019  RH  054%=      5-min Rain = 0
KOES 240745Z 21006KT 07/M03 A30 RMK A01 T00671028  RH  051%=      5-min Rain = 0
KOES 240750Z 21006KT 07/M03 A30 RMK A01 T00651031  RH  051%=      5-min Rain = 0
KOES 240755Z 20006KT 06/M03 A30 RMK A01 T00611025  RH  055%=      5-min Rain = 0
KOES 240800Z 20007KT 06/M02 A30 RMK A01 T00581020  RH  058%=      5-min Rain = 0
KOES 240805Z 20007KT 06/M02 A30 RMK A01 T00581015  RH  060%=      5-min Rain = 0
KOES 240810Z 20008KT 06/M02 A30 RMK A01 T00591020  RH  058%=      5-min Rain = 0
KOES 240815Z 20009KT 07/M03 A30 RMK A01 T00661027  RH  052%=      5-min Rain = 0
KOES 240820Z 21007KT 07/M02 A30 RMK A01 T00671021  RH  054%=      5-min Rain = 0
KOES 240825Z 21008KT 07/M03 A30 RMK A01 T00651026  RH  052%=      5-min Rain = 0
KOES 240830Z 21008KT 06/M03 A30 RMK A01 T00641026  RH  053%=      5-min Rain = 0
KOES 240835Z 21009KT 06/M03 A30 RMK A01 T00641027  RH  052%=      5-min Rain = 0
KOES 240840Z 21009KT 07/M03 A30 RMK A01 T00661031  RH  050%=      5-min Rain = 0
KOES 240845Z 21008KT 07/M03 A30 RMK A01 T00671031  RH  050%=      5-min Rain = 0
KOES 240850Z 22007KT 07/M03 A30 RMK A01 T00661032  RH  050%=      5-min Rain = 0
KOES 240855Z 22007KT 07/M04 A30 RMK A01 T00661035  RH  049%=      5-min Rain = 0
KOES 240900Z 22007KT 07/M04 A30 RMK A01 T00681036  RH  048%=      5-min Rain = 0
KOES 240905Z 22007KT 07/M04 A30 RMK A01 T00691037  RH  047%=      5-min Rain = 0
KOES 240910Z 22008KT 07/M03 A30 RMK A01 T00681034  RH  048%=      5-min Rain = 0
KOES 240915Z 22008KT 07/M03 A30 RMK A01 T00651034  RH  049%=      5-min Rain = 0
KOES 240920Z 22009KT 07/M04 A30 RMK A01 T00681038  RH  047%=      5-min Rain = 0
KOES 240925Z 22008KT 07/M04 A30 RMK A01 T00721038  RH  046%=      5-min Rain = 0
KOES 240930Z 23008KT 07/M04 A3001 RMK A01 T00701036  RH  047%=      5-min Rain = 0
KOES 240935Z 23008KT 07/M04 A3001 RMK A01 T00681036  RH  048%=      5-min Rain = 0
KOES 240940Z 23009KT 07/M04 A3001 RMK A01 T00711038  RH  046%=      5-min Rain = 0
KOES 240945Z 23009KT 07/M04 A3001 RMK A01 T00701039  RH  046%=      5-min Rain = 0
KOES 240950Z 23009KT 07/M04 A3001 RMK A01 T00681038  RH  047%=      5-min Rain = 0
KOES 240955Z 23008KT 07/M04 A30 RMK A01 T00681035  RH  048%=      5-min Rain = 0
KOES 241000Z 23009KT 07/M04 A30 RMK A01 T00671035  RH  048%=      5-min Rain = 0
KOES 241005Z 23009KT 07/M03 A30 RMK A01 T00681032  RH  049%=      5-min Rain = 0
KOES 241010Z 24009KT 07/M03 A30 RMK A01 T00701032  RH  048%=      5-min Rain = 0
KOES 241015Z 24009KT 07/M03 A30 RMK A01 T00721031  RH  048%=      5-min Rain = 0
KOES 241020Z 24009KT 07/M03 A3001 RMK A01 T00711030  RH  049%=      5-min Rain = 0
KOES 241025Z 24008KT 07/M03 A3001 RMK A01 T00701029  RH  050%=      5-min Rain = 0
KOES 241030Z 24007KT 07/M03 A3001 RMK A01 T00681026  RH  051%=      5-min Rain = 0
KOES 241035Z 24007KT 07/M02 A3001 RMK A01 T00681020  RH  054%=      5-min Rain = 0
KOES 241040Z 24007KT 07/M02 A3001 RMK A01 T00701015  RH  055%=      5-min Rain = 0
KOES 241045Z 24007KT 07/M01 A3001 RMK A01 T00701010  RH  057%=      5-min Rain = 0
KOES 241050Z 24007KT 07/M01 A3001 RMK A01 T00701007  RH  059%=      5-min Rain = 0
KOES 241055Z 24007KT 07/M01 A3002 RMK A01 T00711007  RH  058%=      5-min Rain = 0
KOES 241100Z 24007KT 07/M01 A3002 RMK A01 T00731007  RH  057%=      5-min Rain = 0
KOES 241105Z 25005KT 07/M01 A3002 RMK A01 T00701007  RH  058%=      5-min Rain = 0
KOES 241110Z 26005KT 07/M01 A3002 RMK A01 T00661006  RH  061%=      5-min Rain = 0
KOES 241115Z 28006KT 06/M01 A3002 RMK A01 T00631011  RH  060%=      5-min Rain = 0
KOES 241120Z 29006KT 06/M02 A3002 RMK A01 T00621016  RH  058%=      5-min Rain = 0
KOES 241125Z 29006KT 06/M02 A3002 RMK A01 T00611015  RH  058%=      5-min Rain = 0
KOES 241130Z 29007KT 06/M02 A3002 RMK A01 T00611015  RH  059%=      5-min Rain = 0
KOES 241135Z 29006KT 06/M02 A3003 RMK A01 T00611020  RH  057%=      5-min Rain = 0
KOES 241140Z 28006KT 06/M03 A3002 RMK A01 T00591026  RH  055%=      5-min Rain = 0
KOES 241145Z 28005KT 06/M03 A3002 RMK A01 T00551026  RH  056%=      5-min Rain = 0
KOES 241150Z 28006KT 05/M03 A3003 RMK A01 T00521025  RH  058%=      5-min Rain = 0
KOES 241155Z 28006KT 05/M02 A3003 RMK A01 T00501024  RH  059%=      5-min Rain = 0
KOES 241200Z 29007KT 05/M02 A3003 RMK A01 T00491022  RH  060%=      5-min Rain = 0
KOES 241205Z 29008KT 05/M02 A3003 RMK A01 T00521018  RH  061%=      5-min Rain = 0
KOES 241210Z 29008KT 06/M01 A3003 RMK A01 T00551012  RH  062%=      5-min Rain = 0
KOES 241215Z 29008KT 06/M01 A3003 RMK A01 T00561010  RH  063%=      5-min Rain = 0
KOES 241220Z 29007KT 06/M01 A3003 RMK A01 T00561011  RH  063%=      5-min Rain = 0
KOES 241225Z 28008KT 06/M01 A3003 RMK A01 T00561014  RH  061%=      5-min Rain = 0
KOES 241230Z 28008KT 06/M02 A3003 RMK A01 T00571019  RH  058%=      5-min Rain = 0
KOES 241235Z 29008KT 06/M02 A3003 RMK A01 T00581024  RH  056%=      5-min Rain = 0
KOES 241240Z 29009KT 06/M03 A3003 RMK A01 T00571028  RH  055%=      5-min Rain = 0
KOES 241245Z 30010KT 06/M03 A3003 RMK A01 T00581032  RH  053%=      5-min Rain = 0
KOES 241250Z 30011KT 06/M03 A3004 RMK A01 T00581034  RH  052%=      5-min Rain = 0
KOES 241255Z 30011KT 06/M04 A3004 RMK A01 T00601038  RH  050%=      5-min Rain = 0
KOES 241300Z 31010KT 07/M04 A3004 RMK A01 T00661041  RH  047%=      5-min Rain = 0
KOES 241305Z 31010KT 07/M04 A3004 RMK A01 T00661041  RH  047%=      5-min Rain = 0
KOES 241310Z 31009KT 07/M04 A3004 RMK A01 T00661041  RH  047%=      5-min Rain = 0
KOES 241315Z 31009KT 07/M04 A3004 RMK A01 T00671042  RH  046%=      5-min Rain = 0
KOES 241320Z 31010KT 07/M04 A3005 RMK A01 T00701041  RH  045%=      5-min Rain = 0
KOES 241325Z 31009KT 07/M04 A3005 RMK A01 T00741042  RH  044%=      5-min Rain = 0
KOES 241330Z 31009KT 08/M04 A3005 RMK A01 T00761040  RH  044%=      5-min Rain = 0
KOES 241335Z 31008KT 08/M04 A3006 RMK A01 T00791037  RH  044%=      5-min Rain = 0
KOES 241340Z 32007KT 08/M04 A3006 RMK A01 T00841037  RH  042%=      5-min Rain = 0
KOES 241345Z 32006KT 09/M04 A3006 RMK A01 T00881038  RH  041%=      5-min Rain = 0
KOES 241350Z 32006KT 09/M04 A3006 RMK A01 T00911036  RH  041%=      5-min Rain = 0
KOES 241355Z 32007KT 10/M03 A3006 RMK A01 T00951034  RH  040%=      5-min Rain = 0
KOES 241400Z 33007KT 10/M03 A3006 RMK A01 T00981033  RH  040%=      5-min Rain = 0
KOES 241405Z 34007KT 10/M03 A3006 RMK A01 T01021031  RH  039%=      5-min Rain = 0
KOES 241410Z 35008KT 11/M03 A3006 RMK A01 T01061027  RH  040%=      5-min Rain = 0
KOES 241415Z 35006KT 11/M02 A3007 RMK A01 T01071023  RH  041%=      5-min Rain = 0
KOES 241420Z 35008KT 11/M02 A3007 RMK A01 T01121021  RH  040%=      5-min Rain = 0
KOES 241425Z 35009KT 12/M02 A3007 RMK A01 T01161021  RH  039%=      5-min Rain = 0
KOES 241430Z 35008KT 12/M02 A3007 RMK A01 T01161022  RH  038%=      5-min Rain = 0
KOES 241435Z 35007KT 12/M02 A3007 RMK A01 T01171019  RH  039%=      5-min Rain = 0
KOES 241440Z 35006KT 12/M02 A3007 RMK A01 T01211016  RH  039%=      5-min Rain = 0
KOES 241445Z 36007KT 13/M01 A3007 RMK A01 T01261013  RH  038%=      5-min Rain = 0
KOES 241450Z 00008KT 13/M02 A3007 RMK A01 T01291015  RH  037%=      5-min Rain = 0
KOES 241455Z 00009KT 13/M01 A3008 RMK A01 T01321008  RH  038%=      5-min Rain = 0
KOES 241500Z 01009KT 14/M00 A3008 RMK A01 T01361003  RH  039%=      5-min Rain = 0
KOES 241505Z 02006KT 14/M00 A3008 RMK A01 T01361002  RH  039%=      5-min Rain = 0
KOES 241510Z 04003KT 14/M00 A3009 RMK A01 T01351001  RH  040%=      5-min Rain = 0
KOES 241515Z 02004KT 13/00 A3009 RMK A01 T01340002  RH  041%=      5-min Rain = 0
KOES 241520Z 00004KT 14/00 A3009 RMK A01 T01360003  RH  041%=      5-min Rain = 0
KOES 241525Z 00001KT 14/00 A3009 RMK A01 T01380002  RH  040%=      5-min Rain = 0
KOES 241530Z 34001KT 15/00 A3009 RMK A01 T014600-0  RH  037%=      5-min Rain = 0
KOES 241535Z 01002KT 15/00 A3009 RMK A01 T01480001  RH  037%=      5-min Rain = 0
KOES 241540Z 34001KT 15/00 A3009 RMK A01 T01490002  RH  037%=      5-min Rain = 0
KOES 241545Z 01002KT 15/00 A3009 RMK A01 T01530004  RH  037%=      5-min Rain = 0
KOES 241550Z 04003KT 15/00 A3009 RMK A01 T01520004  RH  037%=      5-min Rain = 0
KOES 241555Z 07003KT 15/00 A3009 RMK A01 T01520001  RH  036%=      5-min Rain = 0
KOES 241600Z 10004KT 15/00 A3009 RMK A01 T01530004  RH  036%=      5-min Rain = 0
KOES 241605Z 07004KT 16/00 A3009 RMK A01 T01570000  RH  035%=      5-min Rain = 0
KOES 241610Z 02004KT 16/01 A3009 RMK A01 T01640006  RH  035%=      5-min Rain = 0
KOES 241615Z 03004KT 17/00 A3009 RMK A01 T01690003  RH  033%=      5-min Rain = 0
KOES 241620Z 05004KT 17/M00 A3009 RMK A01 T01691003  RH  031%=      5-min Rain = 0
KOES 241625Z 05005KT 17/M01 A3009 RMK A01 T01721008  RH  030%=      5-min Rain = 0
KOES 241630Z 04003KT 17/M01 A3009 RMK A01 T01731009  RH  029%=      5-min Rain = 0
KOES 241635Z 03002KT 17/M01 A3009 RMK A01 T01741010  RH  029%=      5-min Rain = 0
KOES 241640Z 10005KT 18/M01 A3009 RMK A01 T01751013  RH  028%=      5-min Rain = 0
KOES 241645Z 13003KT 18/M01 A3009 RMK A01 T01761013  RH  028%=      5-min Rain = 0
KOES 241650Z 10002KT 18/M02 A3009 RMK A01 T01791018  RH  026%=      5-min Rain = 0
KOES 241655Z 06002KT 19/M01 A3009 RMK A01 T01851009  RH  027%=      5-min Rain = 0
KOES 241700Z 04003KT 19/M01 A3009 RMK A01 T01881011  RH  026%=      5-min Rain = 0
KOES 241705Z 03003KT 19/M01 A3009 RMK A01 T01861012  RH  026%=      5-min Rain = 0
KOES 241710Z 06002KT 19/M02 A3009 RMK A01 T01891017  RH  025%=      5-min Rain = 0
KOES 241715Z 10002KT 19/M02 A3009 RMK A01 T01861019  RH  025%=      5-min Rain = 0
KOES 241720Z 14002KT 19/M02 A3009 RMK A01 T01881016  RH  025%=      5-min Rain = 0
KOES 241725Z 12002KT 19/M01 A3009 RMK A01 T01931013  RH  025%=      5-min Rain = 0
KOES 241730Z 05004KT 20/M01 A3009 RMK A01 T01961009  RH  025%=      5-min Rain = 0
KOES 241735Z 09003KT 20/M01 A3009 RMK A01 T01961014  RH  025%=      5-min Rain = 0
KOES 241740Z 03001KT 20/M02 A3009 RMK A01 T01991016  RH  024%=      5-min Rain = 0
KOES 241745Z 36001KT 20/M01 A3009 RMK A01 T02031010  RH  024%=      5-min Rain = 0
KOES 241750Z 10003KT 20/M01 A3009 RMK A01 T02011011  RH  024%=      5-min Rain = 0
KOES 241755Z 09002KT 20/M01 A3009 RMK A01 T02011008  RH  025%=      5-min Rain = 0
KOES 241800Z 08004KT 20/M02 A3009 RMK A01 T02011015  RH  024%=      5-min Rain = 0
KOES 241805Z 26002KT 21/M01 A3009 RMK A01 T02051007  RH  024%=      5-min Rain = 0
KOES 241810Z 20001KT 21/M02 A3009 RMK A01 T02091015  RH  022%=      5-min Rain = 0
KOES 241815Z 19001KT 21/M02 A3009 RMK A01 T02121016  RH  022%=      5-min Rain = 0
KOES 241820Z 34002KT 22/M01 A3009 RMK A01 T02171010  RH  022%=      5-min Rain = 0
KOES 241825Z 36004KT 22/M01 A3009 RMK A01 T02171013  RH  022%=      5-min Rain = 0
KOES 241830Z 35004KT 22/M02 A3008 RMK A01 T02181015  RH  021%=      5-min Rain = 0
KOES 241835Z 30002KT 22/M01 A3008 RMK A01 T02171014  RH  021%=      5-min Rain = 0
KOES 241840Z 27005KT 23/M02 A3008 RMK A01 T02261015  RH  020%=      5-min Rain = 0
KOES 241845Z 24005G11KT 23/M03 A3007 RMK A01 T02271031  RH  018%=      5-min Rain = 0
KOES 241850Z 23002KT 23/M03 A3007 RMK A01 T02291026  RH  018%=      5-min Rain = 0
KOES 241855Z 16004KT 23/M02 A3007 RMK A01 T02341024  RH  018%=      5-min Rain = 0
KOES 241900Z 23004G10KT 23/M03 A3006 RMK A01 T02341027  RH  018%=      5-min Rain = 0
KOES 241905Z 22004KT 23/M04 A3006 RMK A01 T02331038  RH  016%=      5-min Rain = 0
KOES 241910Z 24005G10KT 23/M04 A3006 RMK A01 T02301039  RH  016%=      5-min Rain = 0
KOES 241915Z 26006KT 24/M04 A3006 RMK A01 T02361036  RH  016%=      5-min Rain = 0
KOES 241920Z 27004G9KT 24/M04 A3006 RMK A01 T02391043  RH  015%=      5-min Rain = 0
KOES 241925Z 28002KT 24/M04 A3005 RMK A01 T02381038  RH  016%=      5-min Rain = 0
KOES 241930Z 25004G10KT 24/M04 A3005 RMK A01 T02421037  RH  015%=      5-min Rain = 0
KOES 241935Z 22007G12KT 24/M04 A3005 RMK A01 T02401041  RH  015%=      5-min Rain = 0
KOES 241940Z 20005G13KT 24/M05 A3005 RMK A01 T02381052  RH  014%=      5-min Rain = 0
KOES 241945Z 22005G11KT 24/M05 A3004 RMK A01 T02381047  RH  015%=      5-min Rain = 0
KOES 241950Z 23008KT 24/M05 A3004 RMK A01 T02401045  RH  015%=      5-min Rain = 0
KOES 241955Z 25010G15KT 24/M04 A3004 RMK A01 T02391041  RH  015%=      5-min Rain = 0
KOES 242000Z 24009G14KT 24/M04 A3004 RMK A01 T02391044  RH  015%=      5-min Rain = 0
KOES 242005Z 25007G12KT 24/M04 A3004 RMK A01 T02421044  RH  015%=      5-min Rain = 0
KOES 242010Z 25007KT 25/M04 A3004 RMK A01 T02471043  RH  014%=      5-min Rain = 0
KOES 242015Z 26007KT 24/M04 A3004 RMK A01 T02441042  RH  015%=      5-min Rain = 0
KOES 242020Z 25009G15KT 24/M04 A3004 RMK A01 T02441041  RH  015%=      5-min Rain = 0
KOES 242025Z 24010KT 24/M05 A3004 RMK A01 T02391047  RH  015%=      5-min Rain = 0
KOES 242030Z 24008KT 24/M04 A3003 RMK A01 T02411044  RH  015%=      5-min Rain = 0
KOES 242035Z 26005KT 25/M04 A3003 RMK A01 T02471038  RH  015%=      5-min Rain = 0
KOES 242040Z 25005G10KT 25/M04 A3003 RMK A01 T02521043  RH  014%=      5-min Rain = 0
KOES 242045Z 25006G13KT 25/M05 A3003 RMK A01 T02481049  RH  014%=      5-min Rain = 0
KOES 242050Z 27007G13KT 25/M04 A3003 RMK A01 T02491043  RH  014%=      5-min Rain = 0
KOES 242055Z 26008KT 25/M04 A3003 RMK A01 T02481043  RH  014%=      5-min Rain = 0
KOES 242100Z 24006KT 25/M05 A3003 RMK A01 T02481045  RH  014%=      5-min Rain = 0
KOES 242105Z 25007G13KT 25/M05 A3003 RMK A01 T02481048  RH  014%=      5-min Rain = 0
KOES 242110Z 28012G18KT 25/M05 A3002 RMK A01 T02481050  RH  014%=      5-min Rain = 0
KOES 242115Z 28013KT 25/M05 A3002 RMK A01 T02491047  RH  014%=      5-min Rain = 0
KOES 242120Z 26011G16KT 25/M04 A3002 RMK A01 T02511042  RH  014%=      5-min Rain = 0
KOES 242125Z 27008G13KT 25/M04 A3002 RMK A01 T02521044  RH  014%=      5-min Rain = 0
KOES 242130Z 27008G14KT 25/M04 A3002 RMK A01 T02531042  RH  014%=      5-min Rain = 0
KOES 242135Z 29011G18KT 26/M05 A3002 RMK A01 T02551047  RH  013%=      5-min Rain = 0
KOES 242140Z 30007G14KT 25/M05 A3002 RMK A01 T02531052  RH  013%=      5-min Rain = 0
KOES 242145Z 25007G14KT 25/M05 A3002 RMK A01 T02531050  RH  013%=      5-min Rain = 0
KOES 242150Z 24007G13KT 25/M05 A3002 RMK A01 T02531051  RH  013%=      5-min Rain = 0
KOES 242155Z 27009KT 25/M05 A3002 RMK A01 T02541051  RH  013%=      5-min Rain = 0
KOES 242200Z 25005KT 25/M05 A3001 RMK A01 T02541048  RH  013%=      5-min Rain = 0
KOES 242205Z 24005KT 26/M05 A3001 RMK A01 T02551049  RH  013%=      5-min Rain = 0
KOES 242210Z 23006G11KT 25/M05 A3001 RMK A01 T02531054  RH  013%=      5-min Rain = 0
KOES 242215Z 26006G12KT 25/M05 A3001 RMK A01 T02531050  RH  013%=      5-min Rain = 0
KOES 242220Z 31009KT 26/M06 A3001 RMK A01 T02561055  RH  012%=      5-min Rain = 0
KOES 242225Z 34007KT 25/M06 A3001 RMK A01 T02531058  RH  012%=      5-min Rain = 0
KOES 242230Z 31005KT 25/M06 A3001 RMK A01 T02521057  RH  013%=      5-min Rain = 0
KOES 242235Z 30003KT 25/M06 A3001 RMK A01 T02521056  RH  013%=      5-min Rain = 0
KOES 242240Z 32004G11KT 25/M06 A3001 RMK A01 T02531056  RH  013%=      5-min Rain = 0
KOES 242245Z 31004KT 25/M06 A3001 RMK A01 T02531058  RH  012%=      5-min Rain = 0
KOES 242250Z 29006KT 26/M06 A3001 RMK A01 T02551056  RH  012%=      5-min Rain = 0
KOES 242255Z 29008G13KT 26/M05 A3001 RMK A01 T02551052  RH  013%=      5-min Rain = 0
KOES 242300Z 31004KT 26/M06 A3001 RMK A01 T02551057  RH  012%=      5-min Rain = 0
KOES 242305Z 29005KT 25/M06 A3001 RMK A01 T02541055  RH  012%=      5-min Rain = 0
KOES 242310Z 31007KT 25/M06 A3001 RMK A01 T02541059  RH  012%=      5-min Rain = 0
KOES 242315Z 30005KT 25/M06 A3001 RMK A01 T02541055  RH  013%=      5-min Rain = 0
KOES 242320Z 34005G10KT 25/M06 A3001 RMK A01 T02541056  RH  013%=      5-min Rain = 0
KOES 242325Z 33008KT 25/M06 A3001 RMK A01 T02531055  RH  013%=      5-min Rain = 0
KOES 242330Z 34009KT 25/M06 A3001 RMK A01 T02501056  RH  013%=      5-min Rain = 0
KOES 242335Z 35010KT 25/M06 A3001 RMK A01 T02481057  RH  013%=      5-min Rain = 0
KOES 242340Z 36009KT 25/M06 A3001 RMK A01 T02481056  RH  013%=      5-min Rain = 0
KOES 242345Z 31009KT 25/M06 A3001 RMK A01 T02481058  RH  013%=      5-min Rain = 0
KOES 242350Z 33009KT 25/M06 A3001 RMK A01 T02471059  RH  013%=      5-min Rain = 0
KOES 242355Z 32009KT 25/M06 A3001 RMK A01 T02451060  RH  013%=      5-min Rain = 0
KOES 250000Z 31008KT 24/M06 A3002 RMK A01 T02441061  RH  013%=      5-min Rain = 0
KOES 250005Z 33007KT 24/M06 A3002 RMK A01 T02431062  RH  013%=      5-min Rain = 0
KOES 250010Z 35008KT 24/M06 A3002 RMK A01 T02421059  RH  013%=      5-min Rain = 0
KOES 250015Z 35007G12KT 24/M06 A3002 RMK A01 T02401058  RH  013%=      5-min Rain = 0
KOES 250020Z 36010KT 24/M05 A3002 RMK A01 T02371052  RH  014%=      5-min Rain = 0
KOES 250025Z 01010KT 23/M05 A3002 RMK A01 T02331048  RH  015%=      5-min Rain = 0
KOES 250030Z 01008KT 23/M04 A3002 RMK A01 T02301044  RH  016%=      5-min Rain = 0
KOES 250035Z 02008KT 23/M04 A3002 RMK A01 T02271043  RH  016%=      5-min Rain = 0
KOES 250040Z 02008KT 22/M04 A3003 RMK A01 T02241040  RH  017%=      5-min Rain = 0
KOES 250045Z 02007KT 22/M04 A3003 RMK A01 T02211038  RH  017%=      5-min Rain = 0
KOES 250050Z 03007KT 22/M04 A3003 RMK A01 T02171038  RH  018%=      5-min Rain = 0
KOES 250055Z 02006KT 21/M04 A3002 RMK A01 T02131037  RH  018%=      5-min Rain = 0
KOES 250100Z 03007KT 21/M04 A3003 RMK A01 T02081036  RH  019%=      5-min Rain = 0
KOES 250105Z 02006KT 20/M04 A3003 RMK A01 T02031037  RH  020%=      5-min Rain = 0
KOES 250110Z 02007KT 20/M03 A3003 RMK A01 T01971034  RH  021%=      5-min Rain = 0
KOES 250115Z 03006KT 19/M04 A3003 RMK A01 T01931035  RH  021%=      5-min Rain = 0
KOES 250120Z 04006KT 19/M04 A3003 RMK A01 T01891037  RH  021%=      5-min Rain = 0
KOES 250125Z 03006KT 19/M04 A3003 RMK A01 T01851037  RH  022%=      5-min Rain = 0
KOES 250130Z 04006KT 18/M03 A3003 RMK A01 T01811034  RH  023%=      5-min Rain = 0
KOES 250135Z 04007KT 18/M03 A3004 RMK A01 T01771030  RH  024%=      5-min Rain = 0
KOES 250140Z 04006KT 17/M03 A3004 RMK A01 T01741028  RH  025%=      5-min Rain = 0
KOES 250145Z 03006KT 17/M03 A3004 RMK A01 T01701027  RH  026%=      5-min Rain = 0
KOES 250150Z 03007KT 17/M03 A3004 RMK A01 T01681028  RH  026%=      5-min Rain = 0
KOES 250155Z 04007KT 17/M03 A3004 RMK A01 T01671029  RH  026%=      5-min Rain = 0
KOES 250200Z 05007KT 17/M03 A3005 RMK A01 T01661025  RH  027%=      5-min Rain = 0
KOES 250205Z 05008KT 17/M02 A3005 RMK A01 T01661023  RH  028%=      5-min Rain = 0
KOES 250210Z 05007KT 17/M02 A3005 RMK A01 T01651021  RH  028%=      5-min Rain = 0
KOES 250215Z 05006KT 16/M02 A3005 RMK A01 T01621020  RH  029%=      5-min Rain = 0
KOES 250220Z 05006KT 16/M02 A3005 RMK A01 T01591019  RH  030%=      5-min Rain = 0
KOES 250225Z 05006KT 16/M02 A3005 RMK A01 T01551020  RH  030%=      5-min Rain = 0
KOES 250230Z 05006KT 15/M02 A3006 RMK A01 T01531020  RH  031%=      5-min Rain = 0
KOES 250235Z 05005KT 15/M02 A3006 RMK A01 T01511021  RH  031%=      5-min Rain = 0
KOES 250240Z 05005KT 15/M02 A3006 RMK A01 T01481022  RH  031%=      5-min Rain = 0
KOES 250245Z 05005KT 15/M02 A3007 RMK A01 T01451022  RH  032%=      5-min Rain = 0
KOES 250250Z 07006KT 14/M02 A3007 RMK A01 T01441022  RH  032%=      5-min Rain = 0
KOES 250255Z 07006KT 14/M02 A3007 RMK A01 T01411023  RH  032%=      5-min Rain = 0
KOES 250300Z 06005KT 14/M02 A3007 RMK A01 T01381022  RH  033%=      5-min Rain = 0
KOES 250305Z 06005KT 14/M02 A3007 RMK A01 T01351017  RH  035%=      5-min Rain = 0
KOES 250310Z 07005KT 14/M02 A3008 RMK A01 T01361018  RH  035%=      5-min Rain = 0
KOES 250315Z 08006KT 14/M02 A3008 RMK A01 T01361019  RH  035%=      5-min Rain = 0
KOES 250320Z 07006KT 14/M02 A3008 RMK A01 T01361019  RH  034%=      5-min Rain = 0
KOES 250325Z 07007KT 13/M02 A3008 RMK A01 T01341019  RH  035%=      5-min Rain = 0
KOES 250330Z 08006KT 13/M02 A3009 RMK A01 T01331020  RH  035%=      5-min Rain = 0
KOES 250335Z 09006KT 14/M01 A3009 RMK A01 T01361014  RH  036%=      5-min Rain = 0
KOES 250340Z 08005KT 14/M02 A3009 RMK A01 T01351018  RH  035%=      5-min Rain = 0
KOES 250345Z 06004KT 13/M01 A3009 RMK A01 T01291014  RH  037%=      5-min Rain = 0
KOES 250350Z 08006KT 13/M01 A3009 RMK A01 T01271011  RH  039%=      5-min Rain = 0
KOES 250355Z 08007KT 13/M01 A3009 RMK A01 T01281012  RH  038%=      5-min Rain = 0
KOES 250400Z 08007KT 13/M01 A3009 RMK A01 T01321011  RH  038%=      5-min Rain = 0
KOES 250405Z 08006KT 14/M01 A3009 RMK A01 T01351014  RH  036%=      5-min Rain = 0
KOES 250410Z 08006KT 13/M02 A301 RMK A01 T01271019  RH  037%=      5-min Rain = 0
KOES 250415Z 08007KT 12/M01 A301 RMK A01 T01231010  RH  040%=      5-min Rain = 0
KOES 250420Z 08007KT 13/M01 A301 RMK A01 T01301011  RH  038%=      5-min Rain = 0
KOES 250425Z 08008KT 13/M01 A301 RMK A01 T01281012  RH  038%=      5-min Rain = 0
KOES 250430Z 08008KT 13/M01 A301 RMK A01 T01251008  RH  040%=      5-min Rain = 0
KOES 250435Z 08008KT 13/00 A301 RMK A01 T01280002  RH  042%=      5-min Rain = 0
KOES 250440Z 08007KT 13/01 A301 RMK A01 T01300006  RH  043%=      5-min Rain = 0
KOES 250445Z 09007KT 13/01 A301 RMK A01 T01280010  RH  045%=      5-min Rain = 0
KOES 250450Z 10007KT 13/02 A3011 RMK A01 T01290019  RH  048%=      5-min Rain = 0
KOES 250455Z 10006KT 14/02 A3011 RMK A01 T01350022  RH  047%=      5-min Rain = 0

Page generated in 0.0094 seconds.